Terminal Aerodrome Forecast
Issued by NWS Mt. Holly, NJ

Home | Current Version | Previous Version | Text Only | Print | Product List | Glossary On
Versions: 1 2 3 4 5 6 7 8 9 10 11 12 13 14 15 16 17 18 19 20 21 22
523
FTUS41 KPHI 191419 AAA
TAFPHL
TAF AMD
KPHL 191419Z 1914/2018 35010KT P6SM -SHRA SCT035 OVC110
     FM191700 32012G20KT P6SM -SHRA OVC025
     FM192100 31016G24KT P6SM BKN045
     FM200200 31014G22KT P6SM SCT045=

USA.gov is the U.S. government's official web portal to all federal, state and local government web resources and services.